首页
METAR-TAF:

METAR-TAF

机场 :

迪拜国际机场

杜拜, 阿拉伯联合酋长国

纬度: 25-15-10N, 经度: 055-21-52E, 海拔: 8米

当前天气观测

该预报发布于34分钟前的19:00 UTC
风速4节,风向西南,在西之间变化
温度 31°C
湿度 46%
气压 1007 hPa
能见度10公里或以上
1500米以下无云,无积雨云

METAR: OMDB 231900Z 22004KT 190V260 CAVOK 31/18 Q1007 NOSIG

时间: 23:34 (19:34 UTC)

预报

该预报发布于2小时和32分钟前的17:02 UTC
预报有效从23日的 18点(UTC)到 25日的 00点(UTC)
风速5节,风向
能见度10公里或以上
1500米以下无云,无积雨云
成为
从 24日的 07点(UTC)到 24日的 09点(UTC)
风速10节,风向西北
成为
从 24日的 16点(UTC)到 24日的 18点(UTC)
风速5节,风向

TAF: OMDB 231702Z 2318/2500 18005KT CAVOK BECMG 2407/2409 32010KT BECMG 2416/2418 08005KT

超过4000个机场的气象观测和天气预报(METAR&TAF报告)。

可查询的气象台以黄色和红色小点在地图上表示。

将鼠标移到小点上方,可查看气象台名称。

然后点击查看天气观测和预报。

如需切换地图:点击带黑十字的绿色按钮放大地图;点击带横线的绿色按钮缩小地图;或者点击绿色箭头查看邻近地区的地图。


METAR-TAF: